Time;durP1;ratioP1;P1;durP2;ratioP2;P2;SDS_P1;SDS_P2;PMS_P1;PMS_P2;Temp;Humidity;BMP_temperature;BMP_pressure;BME280_temperature;BME280_humidity;BME280_pressure;Samples;Min_cycle;Max_cycle;Signal;HPM_P1;HPM_P2
2024/01/01 00:00:13;;;;;;;39.22;22.83;;;5.30;99.90;;;;;;5062505;28;20193;-71
2024/01/01 00:02:39;;;;;;;42.22;20.77;;;5.20;99.90;;;;;;5062877;28;20319;-73
2024/01/01 00:05:06;;;;;;;40.42;20.15;;;5.40;99.90;;;;;;5063547;28;20040;-72
2024/01/01 00:07:32;;;;;;;36.40;19.15;;;5.50;99.90;;;;;;5061419;28;20024;-74
2024/01/01 00:09:57;;;;;;;32.60;17.90;;;5.60;99.90;;;;;;5063363;28;20043;-73
2024/01/01 00:12:23;;;;;;;29.63;16.25;;;5.70;99.90;;;;;;5063022;28;20166;-73
2024/01/01 00:14:49;;;;;;;51.47;30.05;;;5.80;99.90;;;;;;5061961;28;20025;-74
2024/01/01 00:17:14;;;;;;;43.28;24.15;;;5.80;99.90;;;;;;5062921;28;20032;-72
2024/01/01 00:19:40;;;;;;;28.00;15.90;;;5.90;99.90;;;;;;5061249;28;20135;-73
2024/01/01 00:22:06;;;;;;;30.33;15.35;;;5.90;99.90;;;;;;5061628;28;20024;-70
2024/01/01 00:24:32;;;;;;;26.60;13.93;;;5.90;99.90;;;;;;5062067;28;20029;-71
2024/01/01 00:26:57;;;;;;;20.65;12.80;;;5.90;99.90;;;;;;5063014;28;20029;-73
2024/01/01 00:29:26;;;;;;;27.67;14.75;;;6.10;99.90;;;;;;5063020;28;20033;-73
2024/01/01 00:31:52;;;;;;;22.92;12.77;;;6.10;99.90;;;;;;5063591;28;20287;-72
2024/01/01 00:34:18;;;;;;;25.05;12.00;;;6.20;99.90;;;;;;5045223;28;20040;-72
2024/01/01 00:36:43;;;;;;;19.73;11.02;;;6.20;99.90;;;;;;5061092;28;20064;-71
2024/01/01 00:39:09;;;;;;;19.35;11.00;;;6.20;99.90;;;;;;5061577;28;20035;-72
2024/01/01 00:41:38;;;;;;;20.85;10.57;;;6.20;99.90;;;;;;5062285;28;20259;-72
2024/01/01 00:44:04;;;;;;;;;;;6.20;99.90;;;;;;5063307;28;20118;-73
2024/01/01 00:46:29;;;;;;;19.08;9.75;;;6.30;99.90;;;;;;5061911;28;19912;-72
2024/01/01 00:48:55;;;;;;;18.00;10.63;;;6.20;99.90;;;;;;5061317;28;20036;-73
2024/01/01 00:51:21;;;;;;;18.98;10.50;;;6.10;99.90;;;;;;5061359;28;20202;-72
2024/01/01 00:53:47;;;;;;;19.40;9.93;;;6.00;99.90;;;;;;5061904;28;20025;-71
2024/01/01 00:56:12;;;;;;;17.48;10.57;;;5.90;99.90;;;;;;5061441;28;20025;-71
2024/01/01 00:58:38;;;;;;;19.77;10.70;;;5.90;99.90;;;;;;5062031;28;20028;-73
2024/01/01 01:01:04;;;;;;;19.88;10.07;;;5.90;99.90;;;;;;5062435;28;20040;-72
2024/01/01 01:03:31;;;;;;;22.08;11.05;;;5.80;99.90;;;;;;5060587;28;20029;-73
2024/01/01 01:05:57;;;;;;;20.55;9.90;;;5.80;99.90;;;;;;5062239;28;20086;-73
2024/01/01 01:08:23;;;;;;;15.38;8.52;;;5.80;99.90;;;;;;5062367;28;20257;-72
2024/01/01 01:10:49;;;;;;;16.58;8.65;;;5.70;99.90;;;;;;5060339;28;20064;-73
2024/01/01 01:13:15;;;;;;;16.42;8.80;;;5.80;99.90;;;;;;5062191;28;20013;-71
2024/01/01 01:15:41;;;;;;;14.95;8.13;;;5.80;99.90;;;;;;5061504;28;20166;-71
2024/01/01 01:18:07;;;;;;;15.48;8.27;;;5.70;99.90;;;;;;5062276;28;20096;-72
2024/01/01 01:20:32;;;;;;;17.10;8.25;;;5.80;99.90;;;;;;5061485;28;20027;-73
2024/01/01 01:22:58;;;;;;;16.00;8.63;;;5.90;99.90;;;;;;5062250;28;20354;-75
2024/01/01 01:25:24;;;;;;;15.82;8.05;;;5.90;99.90;;;;;;5062426;28;20040;-74
2024/01/01 01:27:50;;;;;;;13.43;7.55;;;6.00;99.90;;;;;;5061548;28;20029;-72
2024/01/01 01:30:16;;;;;;;14.98;6.85;;;6.00;99.90;;;;;;5062141;28;20033;-73
2024/01/01 01:32:42;;;;;;;13.63;7.47;;;6.10;99.90;;;;;;5061458;28;20035;-72
2024/01/01 01:35:08;;;;;;;15.15;7.18;;;6.10;99.90;;;;;;5061799;28;20025;-74
2024/01/01 01:37:34;;;;;;;14.50;6.95;;;6.20;99.90;;;;;;5061476;28;20036;-73
2024/01/01 01:40:00;;;;;;;12.45;6.97;;;6.20;99.90;;;;;;5061871;28;20029;-73
2024/01/01 01:42:25;;;;;;;15.35;6.63;;;6.30;99.90;;;;;;5060905;28;20246;-71
2024/01/01 01:44:51;;;;;;;13.05;6.78;;;6.30;99.90;;;;;;5060259;28;20025;-73
2024/01/01 01:47:17;;;;;;;12.57;6.53;;;6.20;99.90;;;;;;5062066;28;20116;-72
2024/01/01 01:49:43;;;;;;;14.93;7.35;;;6.20;99.90;;;;;;5061517;28;20036;-71
2024/01/01 01:52:10;;;;;;;13.82;6.28;;;6.00;99.90;;;;;;5060955;28;20036;-74
2024/01/01 01:54:36;;;;;;;12.45;6.57;;;6.00;99.90;;;;;;5060222;28;20029;-72
2024/01/01 01:57:04;;;;;;;13.00;5.72;;;5.90;99.90;;;;;;5060707;28;20088;-72
2024/01/01 01:59:30;;;;;;;11.13;5.75;;;6.00;99.90;;;;;;5059855;28;20100;-73
2024/01/01 02:01:57;;;;;;;12.43;5.50;;;6.00;99.90;;;;;;5044070;28;20071;-72
2024/01/01 02:04:24;;;;;;;14.40;5.55;;;6.00;99.90;;;;;;5060695;28;20029;-74
2024/01/01 02:06:49;;;;;;;11.63;5.93;;;6.00;99.90;;;;;;5061181;28;20029;-72
2024/01/01 02:09:15;;;;;;;9.82;5.63;;;6.00;99.90;;;;;;5060517;28;20036;-73
2024/01/01 02:11:42;;;;;;;13.18;5.65;;;6.00;99.90;;;;;;5060896;28;20059;-73
2024/01/01 02:14:13;;;;;;;11.27;5.05;;;6.00;99.90;;;;;;5060217;28;20025;-72
2024/01/01 02:16:39;;;;;;;11.63;5.10;;;6.10;99.90;;;;;;5059829;28;20132;-73
2024/01/01 02:19:19;;;;;;;9.55;4.35;;;6.00;99.90;;;;;;5061705;28;20028;-72
2024/01/01 02:21:49;;;;;;;8.95;4.38;;;6.10;99.90;;;;;;5060658;28;20029;-71
2024/01/01 02:24:15;;;;;;;9.15;4.95;;;6.10;99.90;;;;;;5063162;28;20489;-73
2024/01/01 02:26:45;;;;;;;9.93;4.38;;;6.10;99.90;;;;;;5064763;28;20314;-70
2024/01/01 02:29:11;;;;;;;9.50;4.45;;;6.20;99.90;;;;;;5064964;28;20032;-72
2024/01/01 02:31:37;;;;;;;12.60;4.85;;;6.20;99.90;;;;;;5064148;28;20059;-73
2024/01/01 02:34:03;;;;;;;10.20;4.38;;;6.10;99.90;;;;;;5063987;28;20021;-72
2024/01/01 02:36:34;;;;;;;12.45;5.15;;;6.10;99.90;;;;;;5063078;28;20098;-72
2024/01/01 02:39:00;;;;;;;10.57;5.28;;;6.00;99.90;;;;;;5064844;28;20041;-73
2024/01/01 02:41:25;;;;;;;9.63;4.40;;;6.00;99.90;;;;;;5065111;28;20017;-72
2024/01/01 02:43:51;;;;;;;11.75;4.55;;;6.00;99.90;;;;;;5063181;28;20025;-72
2024/01/01 02:46:17;;;;;;;9.98;4.45;;;6.00;99.90;;;;;;5064489;28;20106;-74
2024/01/01 02:48:42;;;;;;;10.30;4.18;;;6.00;99.90;;;;;;5064373;28;20215;-73
2024/01/01 02:51:08;;;;;;;9.95;4.32;;;6.00;99.90;;;;;;5064528;28;20230;-72
2024/01/01 02:53:34;;;;;;;8.50;4.95;;;6.10;99.90;;;;;;5062852;28;20036;-73
2024/01/01 02:56:00;;;;;;;9.52;4.38;;;6.00;99.90;;;;;;5064715;28;20021;-73
2024/01/01 02:58:27;;;;;;;8.43;4.28;;;6.00;99.90;;;;;;5064713;28;20082;-74
2024/01/01 03:00:53;;;;;;;8.20;4.40;;;5.80;99.90;;;;;;5064623;28;20294;-73
2024/01/01 03:03:19;;;;;;;8.57;4.70;;;5.70;99.90;;;;;;5064461;28;20021;-71
2024/01/01 03:05:45;;;;;;;9.65;5.25;;;5.60;99.90;;;;;;5063923;28;20033;-74
2024/01/01 03:08:11;;;;;;;11.07;4.72;;;5.50;99.90;;;;;;5064064;28;20037;-73
2024/01/01 03:10:37;;;;;;;10.35;4.80;;;5.50;99.90;;;;;;5063882;28;20333;-72
2024/01/01 03:13:03;;;;;;;9.70;4.90;;;5.30;99.90;;;;;;5064095;28;20021;-72
2024/01/01 03:15:29;;;;;;;9.18;5.10;;;5.20;99.90;;;;;;5063638;28;20024;-72
2024/01/01 03:17:55;;;;;;;10.77;4.95;;;5.10;99.90;;;;;;5064397;28;20326;-72
2024/01/01 03:20:23;;;;;;;9.98;5.40;;;5.00;99.90;;;;;;5064258;28;20036;-72
2024/01/01 03:22:49;;;;;;;11.80;5.85;;;5.00;99.90;;;;;;5045779;28;20037;-71
2024/01/01 03:25:15;;;;;;;13.57;5.35;;;5.00;99.90;;;;;;5064255;28;20036;-70
2024/01/01 03:27:40;;;;;;;10.43;5.63;;;5.10;99.90;;;;;;5062268;28;20033;-71
2024/01/01 03:30:08;;;;;;;12.25;5.95;;;5.30;99.90;;;;;;5064209;28;20251;-71
2024/01/01 03:32:37;;;;;;;9.85;4.82;;;5.40;99.90;;;;;;5063558;28;20055;-71
2024/01/01 03:35:04;;;;;;;10.05;5.30;;;5.40;99.90;;;;;;5063565;28;20035;-74
2024/01/01 03:37:30;;;;;;;11.63;5.35;;;5.50;99.90;;;;;;5063355;28;20029;-73
2024/01/01 03:39:55;;;;;;;11.23;5.97;;;5.50;99.90;;;;;;5063896;28;20040;-72
2024/01/01 03:42:22;;;;;;;11.32;5.95;;;5.60;99.90;;;;;;5062639;28;20104;-73
2024/01/01 03:44:48;;;;;;;12.50;6.38;;;5.60;99.90;;;;;;5063135;28;20033;-72
2024/01/01 03:47:13;;;;;;;11.38;6.00;;;5.60;99.90;;;;;;5063757;28;20056;-73
2024/01/01 03:49:40;;;;;;;12.75;6.32;;;5.60;99.90;;;;;;5062794;28;20327;-72
2024/01/01 03:52:06;;;;;;;15.30;6.88;;;5.70;99.90;;;;;;5062676;28;20056;-72
2024/01/01 03:54:32;;;;;;;10.57;5.53;;;5.70;99.90;;;;;;5063041;28;20024;-73
2024/01/01 03:56:58;;;;;;;10.80;5.45;;;5.70;99.90;;;;;;5063489;28;20239;-72
2024/01/01 03:59:24;;;;;;;12.18;5.40;;;5.70;99.90;;;;;;5063773;28;20025;-72
2024/01/01 04:01:49;;;;;;;10.80;5.30;;;5.70;99.90;;;;;;5061761;28;20013;-70
2024/01/01 04:04:15;;;;;;;10.75;5.43;;;5.50;99.90;;;;;;5062230;28;20338;-72
2024/01/01 04:06:41;;;;;;;8.52;4.68;;;5.50;99.90;;;;;;5062480;28;20212;-70
2024/01/01 04:09:06;;;;;;;10.48;4.90;;;5.40;99.90;;;;;;5063329;28;20031;-74
2024/01/01 04:11:32;;;;;;;10.77;5.25;;;5.20;99.90;;;;;;5062523;28;20104;-73
2024/01/01 04:13:58;;;;;;;10.43;4.43;;;5.10;99.90;;;;;;5062996;28;20056;-72
2024/01/01 04:16:23;;;;;;;9.93;4.20;;;5.10;99.90;;;;;;5063305;28;20032;-71
2024/01/01 04:18:50;;;;;;;12.45;4.10;;;5.10;99.90;;;;;;5062633;28;20200;-74
2024/01/01 04:21:15;;;;;;;11.00;5.38;;;5.10;99.90;;;;;;5062784;28;20044;-72
2024/01/01 04:23:41;;;;;;;11.65;4.63;;;5.00;99.90;;;;;;5061262;28;20037;-72
2024/01/01 04:26:07;;;;;;;8.43;4.10;;;5.00;99.90;;;;;;5063052;28;20024;-72
2024/01/01 04:28:32;;;;;;;10.98;3.60;;;4.80;99.90;;;;;;5062315;28;20051;-72
2024/01/01 04:30:58;;;;;;;10.68;3.47;;;4.80;99.90;;;;;;5061916;28;20032;-72
2024/01/01 04:33:24;;;;;;;9.95;3.10;;;4.80;99.90;;;;;;5062593;28;20033;-71
2024/01/01 04:35:50;;;;;;;9.77;3.17;;;4.80;99.90;;;;;;5062203;28;20040;-73
2024/01/01 04:38:15;;;;;;;6.35;2.88;;;4.80;99.90;;;;;;5062989;28;20035;-72
2024/01/01 04:40:41;;;;;;;6.60;2.40;;;4.90;99.90;;;;;;5061027;28;20041;-73
2024/01/01 04:43:07;;;;;;;5.32;2.10;;;5.00;99.90;;;;;;5062435;28;20268;-74
2024/01/01 04:45:35;;;;;;;5.13;2.10;;;4.90;99.90;;;;;;5061665;28;20035;-73
2024/01/01 04:48:04;;;;;;;8.23;2.25;;;4.90;99.90;;;;;;5062038;28;20036;-73
2024/01/01 04:50:33;;;;;;;4.93;1.70;;;5.00;99.90;;;;;;5062001;28;20045;-74
2024/01/01 04:52:59;;;;;;;4.93;1.50;;;5.00;99.90;;;;;;5062394;28;20017;-72
2024/01/01 04:55:24;;;;;;;4.40;1.42;;;5.00;99.90;;;;;;5062643;28;20069;-71
2024/01/01 04:57:50;;;;;;;3.22;1.05;;;5.10;99.90;;;;;;5061697;28;20321;-73
2024/01/01 05:00:16;;;;;;;3.92;1.30;;;5.00;99.90;;;;;;5062594;28;20063;-74
2024/01/01 05:02:41;;;;;;;5.50;1.42;;;5.00;99.90;;;;;;5061889;28;20031;-72
2024/01/01 05:05:10;;;;;;;3.88;1.38;;;5.00;99.90;;;;;;5061505;28;20032;-72
2024/01/01 05:07:39;;;;;;;4.68;1.70;;;5.10;99.90;;;;;;5061909;28;20088;-72
2024/01/01 05:10:05;;;;;;;4.68;1.30;;;5.10;99.90;;;;;;5062379;28;20319;-71
2024/01/01 05:12:30;;;;;;;3.38;1.40;;;5.20;99.90;;;;;;5060635;28;20040;-72
2024/01/01 05:14:56;;;;;;;3.63;1.63;;;5.30;99.90;;;;;;5062447;28;20024;-72
2024/01/01 05:17:23;;;;;;;6.30;1.35;;;5.30;99.90;;;;;;5061358;28;20223;-74
2024/01/01 05:19:50;;;;;;;5.32;1.80;;;5.30;99.90;;;;;;5061907;28;20078;-71
2024/01/01 05:22:16;;;;;;;3.95;1.13;;;5.20;99.90;;;;;;5062086;28;20013;-76
2024/01/01 05:24:42;;;;;;;3.22;1.10;;;5.20;99.90;;;;;;5061525;28;20032;-75
2024/01/01 05:27:13;;;;;;;4.43;1.33;;;5.20;99.90;;;;;;5061159;28;20206;-71
2024/01/01 05:29:42;;;;;;;7.50;1.23;;;5.30;99.90;;;;;;5060453;28;20064;-72
2024/01/01 05:32:08;;;;;;;4.20;1.40;;;5.40;99.90;;;;;;5061287;28;20053;-73
2024/01/01 05:34:36;;;;;;;3.50;0.95;;;5.40;99.90;;;;;;5060542;28;20060;-72
2024/01/01 05:37:02;;;;;;;;;;;5.40;99.90;;;;;;5061223;28;20017;-75
2024/01/01 05:39:36;;;;;;;6.15;1.30;;;5.40;99.90;;;;;;5060695;28;19912;-73
2024/01/01 05:42:02;;;;;;;7.13;0.90;;;5.40;99.90;;;;;;5061855;28;20399;-71
2024/01/01 05:44:28;;;;;;;3.97;0.85;;;5.40;99.90;;;;;;5061345;28;20037;-72
2024/01/01 05:46:54;;;;;;;6.65;1.83;;;5.40;99.90;;;;;;5061997;28;20375;-73
2024/01/01 05:49:19;;;;;;;7.10;0.88;;;5.30;99.90;;;;;;5061952;28;20032;-73
2024/01/01 05:51:45;;;;;;;4.93;1.30;;;5.40;99.90;;;;;;5061151;28;20037;-72
2024/01/01 05:54:11;;;;;;;4.53;0.95;;;5.30;99.90;;;;;;5061998;28;20088;-72
2024/01/01 05:56:37;;;;;;;7.55;1.50;;;5.40;99.90;;;;;;5061366;28;20051;-71
2024/01/01 05:59:03;;;;;;;5.13;1.40;;;5.40;99.90;;;;;;5064752;28;20339;-72
2024/01/01 06:01:28;;;;;;;5.32;1.48;;;5.50;99.90;;;;;;5065050;28;20029;-72
2024/01/01 06:03:54;;;;;;;6.22;1.20;;;5.50;99.90;;;;;;5065876;28;20047;-71
2024/01/01 06:06:22;;;;;;;3.17;1.20;;;5.60;99.90;;;;;;5065877;28;20075;-74
2024/01/01 06:08:48;;;;;;;5.07;1.38;;;5.60;99.90;;;;;;5063503;28;20273;-72
2024/01/01 06:11:14;;;;;;;6.90;1.55;;;5.60;99.90;;;;;;5064422;28;20044;-72
2024/01/01 06:13:39;;;;;;;3.20;1.10;;;5.60;99.90;;;;;;5064930;28;20094;-72
2024/01/01 06:16:05;;;;;;;5.93;1.45;;;5.60;99.90;;;;;;5064110;28;20033;-73
2024/01/01 06:18:31;;;;;;;4.25;1.20;;;5.50;99.90;;;;;;5064792;28;20108;-71
2024/01/01 06:20:57;;;;;;;3.95;1.30;;;5.40;99.90;;;;;;5065092;28;20032;-71
2024/01/01 06:23:22;;;;;;;7.25;1.25;;;5.30;99.90;;;;;;5065020;28;20061;-76
2024/01/01 06:25:48;;;;;;;6.68;1.38;;;5.20;99.90;;;;;;5064330;28;20029;-75
2024/01/01 06:28:14;;;;;;;3.95;1.30;;;5.30;99.90;;;;;;5064903;28;20197;-71
2024/01/01 06:30:39;;;;;;;6.88;2.85;;;5.30;99.90;;;;;;5064306;28;20037;-72
2024/01/01 06:33:05;;;;;;;5.03;1.73;;;5.30;99.90;;;;;;5064229;28;20025;-72
2024/01/01 06:35:31;;;;;;;5.30;1.15;;;5.20;99.90;;;;;;5064403;28;20033;-73
2024/01/01 06:37:57;;;;;;;5.30;1.20;;;5.00;99.90;;;;;;5065057;28;20036;-74
2024/01/01 06:40:23;;;;;;;2.88;0.98;;;4.90;99.90;;;;;;5065113;28;20291;-73
2024/01/01 06:42:52;;;;;;;6.10;1.55;;;4.80;99.90;;;;;;5064083;28;20256;-72
2024/01/01 06:45:17;;;;;;;6.90;1.30;;;4.70;99.90;;;;;;5063632;28;20366;-74
2024/01/01 06:47:43;;;;;;;4.05;1.30;;;4.60;99.90;;;;;;5062948;28;20048;-72
2024/01/01 06:50:09;;;;;;;4.00;1.33;;;4.60;99.90;;;;;;5064531;28;20040;-72
2024/01/01 06:52:35;;;;;;;5.97;1.17;;;4.60;99.90;;;;;;5063867;28;20029;-73
2024/01/01 06:55:04;;;;;;;4.80;1.17;;;4.70;99.90;;;;;;5064965;28;20017;-73
2024/01/01 06:57:29;;;;;;;4.43;0.98;;;4.70;99.90;;;;;;5062767;28;20037;-73
2024/01/01 06:59:55;;;;;;;4.78;1.10;;;4.80;99.90;;;;;;5064425;28;20067;-73
2024/01/01 07:02:22;;;;;;;7.05;1.27;;;4.70;99.90;;;;;;5063280;28;20024;-74
2024/01/01 07:04:47;;;;;;;4.60;1.00;;;4.80;99.90;;;;;;5063992;28;20355;-72
2024/01/01 07:07:14;;;;;;;5.65;1.17;;;4.80;99.90;;;;;;5064235;28;20032;-74
2024/01/01 07:09:40;;;;;;;4.43;1.35;;;4.80;99.90;;;;;;5063019;28;20028;-73
2024/01/01 07:12:27;;;;;;;2.97;0.93;;;4.70;99.90;;;;;;5064187;28;20094;-71
2024/01/01 07:14:53;;;;;;;5.90;1.17;;;4.80;99.90;;;;;;5064203;28;20052;-74
2024/01/01 07:17:19;;;;;;;6.97;1.20;;;4.80;99.90;;;;;;5064106;28;20045;-72
2024/01/01 07:19:45;;;;;;;4.25;0.90;;;4.80;99.90;;;;;;5063726;28;20211;-72
2024/01/01 07:22:12;;;;;;;4.20;0.95;;;4.90;99.90;;;;;;5063986;28;20016;-73
2024/01/01 07:24:38;;;;;;;7.40;0.73;;;4.80;99.90;;;;;;5063639;28;20033;-74
2024/01/01 07:27:04;;;;;;;2.95;0.70;;;4.70;99.90;;;;;;5063989;28;20338;-73
2024/01/01 07:29:30;;;;;;;5.90;0.80;;;4.60;99.90;;;;;;5063242;28;20323;-72
2024/01/01 07:31:56;;;;;;;7.25;1.05;;;4.60;99.90;;;;;;5064173;28;20028;-73
2024/01/01 07:34:22;;;;;;;4.68;1.00;;;4.70;99.90;;;;;;5063778;28;20333;-71
2024/01/01 07:36:48;;;;;;;2.67;0.82;;;4.80;99.90;;;;;;5063492;28;20060;-71
2024/01/01 07:39:19;;;;;;;4.05;0.88;;;4.90;99.90;;;;;;5063752;28;20227;-72
2024/01/01 07:41:47;;;;;;;5.28;1.58;;;4.90;99.90;;;;;;5063353;28;20029;-74
2024/01/01 07:44:13;;;;;;;5.68;1.15;;;5.00;99.90;;;;;;5063688;28;20032;-72
2024/01/01 07:46:39;;;;;;;6.25;1.20;;;5.00;99.90;;;;;;5062775;28;20041;-71
2024/01/01 07:49:06;;;;;;;3.55;0.93;;;5.00;99.90;;;;;;5063491;28;20090;-72
2024/01/01 07:51:35;;;;;;;5.68;1.15;;;4.90;99.90;;;;;;5063109;28;20016;-71
2024/01/01 07:54:01;;;;;;;5.63;0.95;;;5.00;99.90;;;;;;5063512;28;20100;-72
2024/01/01 07:56:28;;;;;;;5.95;0.93;;;5.00;99.90;;;;;;5063690;28;20029;-72
2024/01/01 07:58:54;;;;;;;7.43;0.98;;;5.10;99.90;;;;;;5063393;28;20028;-70
2024/01/01 08:01:20;;;;;;;6.60;1.10;;;5.10;99.90;;;;;;5063190;28;20044;-70
2024/01/01 08:03:46;;;;;;;3.97;0.68;;;5.10;99.90;;;;;;5062602;28;20021;-72
2024/01/01 08:06:12;;;;;;;7.32;0.95;;;5.10;99.90;;;;;;5063328;28;20070;-72
2024/01/01 08:08:38;;;;;;;7.50;1.17;;;5.10;99.90;;;;;;5062453;28;20048;-74
2024/01/01 08:11:03;;;;;;;3.72;0.70;;;5.20;99.90;;;;;;5062177;28;20048;-73
2024/01/01 08:13:29;;;;;;;5.85;1.20;;;5.10;99.90;;;;;;5061437;28;20028;-71
2024/01/01 08:15:55;;;;;;;6.05;0.88;;;5.10;99.90;;;;;;5063060;28;20139;-72
2024/01/01 08:18:21;;;;;;;6.70;1.10;;;5.20;99.90;;;;;;5063139;28;20032;-73
2024/01/01 08:20:46;;;;;;;4.40;1.33;;;5.10;99.90;;;;;;5062501;28;20239;-73
2024/01/01 08:23:12;;;;;;;3.05;0.70;;;5.20;99.90;;;;;;5063123;28;20246;-72
2024/01/01 08:25:39;;;;;;;4.93;1.02;;;5.20;99.90;;;;;;5062078;28;20021;-73
2024/01/01 08:28:05;;;;;;;5.00;1.10;;;5.40;99.90;;;;;;5062711;28;20342;-73
2024/01/01 08:30:31;;;;;;;4.00;0.80;;;5.60;99.90;;;;;;5060956;28;20095;-76
2024/01/01 08:32:57;;;;;;;5.78;0.93;;;5.70;99.90;;;;;;5062999;28;20033;-73
2024/01/01 08:35:23;;;;;;;6.07;2.08;;;5.80;99.90;;;;;;5061661;28;20025;-72
2024/01/01 08:37:49;;;;;;;3.75;0.98;;;5.80;99.90;;;;;;5062091;28;20035;-72
2024/01/01 08:40:15;;;;;;;3.85;0.80;;;5.90;99.90;;;;;;5062917;28;20040;-74
2024/01/01 08:42:41;;;;;;;4.10;0.70;;;5.90;99.90;;;;;;5062033;28;20301;-71
2024/01/01 08:45:07;;;;;;;7.68;1.23;;;6.00;99.90;;;;;;5061800;28;20029;-75
2024/01/01 08:47:34;;;;;;;5.47;0.90;;;6.10;99.90;;;;;;5062502;28;20323;-72
2024/01/01 08:50:00;;;;;;;3.00;0.98;;;6.20;99.90;;;;;;5063136;28;20036;-71
2024/01/01 08:52:27;;;;;;;4.05;0.90;;;6.20;99.90;;;;;;5062673;28;20045;-71
2024/01/01 08:54:53;;;;;;;2.80;0.80;;;6.30;99.90;;;;;;5062694;28;20029;-72
2024/01/01 08:57:19;;;;;;;4.53;1.00;;;6.30;99.90;;;;;;5062715;28;20287;-74
2024/01/01 08:59:45;;;;;;;5.82;0.90;;;6.30;99.90;;;;;;5060689;28;20028;-73
2024/01/01 09:02:10;;;;;;;7.57;1.08;;;6.30;99.90;;;;;;5062518;28;20096;-75
2024/01/01 09:04:36;;;;;;;8.45;1.20;;;6.40;99.90;;;;;;5061637;28;20259;-73
2024/01/01 09:07:03;;;;;;;6.97;1.10;;;6.50;99.90;;;;;;5062482;28;20060;-75
2024/01/01 09:09:29;;;;;;;3.80;0.93;;;6.50;99.90;;;;;;5061637;28;20051;-74
2024/01/01 09:11:55;;;;;;;5.85;1.25;;;6.60;99.90;;;;;;5062694;28;20093;-75
2024/01/01 09:14:21;;;;;;;4.40;0.90;;;6.80;99.90;;;;;;5062222;28;20035;-74
2024/01/01 09:16:47;;;;;;;5.82;0.80;;;6.90;99.90;;;;;;5060591;28;20092;-73
2024/01/01 09:19:15;;;;;;;4.30;1.02;;;7.00;99.90;;;;;;5062557;28;20092;-73
2024/01/01 09:21:41;;;;;;;6.22;1.02;;;7.10;99.90;;;;;;5060705;28;20100;-73
2024/01/01 09:24:09;;;;;;;6.07;0.82;;;7.20;99.90;;;;;;5062306;28;20033;-73
2024/01/01 09:26:35;;;;;;;6.57;0.90;;;7.30;99.90;;;;;;5061771;28;20040;-73
2024/01/01 09:29:01;;;;;;;3.05;0.60;;;7.40;99.90;;;;;;5062211;28;20037;-73
2024/01/01 09:31:27;;;;;;;5.68;1.02;;;7.50;99.90;;;;;;5061952;28;20311;-73
2024/01/01 09:34:00;;;;;;;4.68;0.75;;;7.50;99.90;;;;;;5064930;28;20016;-74
2024/01/01 09:36:26;;;;;;;5.10;0.80;;;7.70;99.90;;;;;;5066239;28;20025;-74
2024/01/01 09:38:52;;;;;;;6.60;0.90;;;7.80;99.90;;;;;;5065272;28;20040;-71
2024/01/01 09:41:18;;;;;;;8.07;0.85;;;7.90;99.90;;;;;;5066175;28;20039;-71
2024/01/01 09:43:44;;;;;;;7.53;1.10;;;7.90;99.90;;;;;;5065567;28;20025;-73
2024/01/01 09:46:13;;;;;;;4.97;0.60;;;8.10;99.90;;;;;;5066212;28;20041;-72
2024/01/01 09:48:38;;;;;;;6.50;1.10;;;8.20;99.90;;;;;;5065383;28;20037;-72
2024/01/01 09:51:05;;;;;;;3.33;0.68;;;8.40;99.90;;;;;;5065822;28;20032;-73
2024/01/01 09:53:31;;;;;;;4.00;0.70;;;8.50;99.20;;;;;;5065294;28;20025;-72
2024/01/01 09:55:57;;;;;;;3.95;0.55;;;8.50;99.20;;;;;;5065780;28;20020;-71
2024/01/01 09:58:23;;;;;;;4.68;0.77;;;8.50;99.00;;;;;;5065920;28;20092;-72
2024/01/01 10:00:49;;;;;;;5.05;1.05;;;8.40;98.80;;;;;;5065158;28;20366;-72
2024/01/01 10:03:15;;;;;;;5.45;0.68;;;8.50;98.20;;;;;;5065673;28;20025;-74
2024/01/01 10:05:41;;;;;;;2.03;0.63;;;8.50;98.10;;;;;;5063992;28;20048;-72
2024/01/01 10:08:11;;;;;;;6.43;0.90;;;8.30;98.20;;;;;;5065271;28;20067;-71
2024/01/01 10:10:38;;;;;;;3.30;0.68;;;8.20;98.40;;;;;;5064721;28;20021;-72
2024/01/01 10:13:14;;;;;;;3.42;0.70;;;8.30;98.10;;;;;;5065361;28;20025;-73
2024/01/01 10:15:42;;;;;;;5.15;0.65;;;8.20;98.30;;;;;;5064586;28;20033;-72
2024/01/01 10:18:17;;;;;;;4.47;0.80;;;8.20;98.00;;;;;;5065277;28;20033;-73
2024/01/01 10:20:44;;;;;;;1.95;0.50;;;8.20;98.00;;;;;;5064642;28;20388;-72
2024/01/01 10:23:21;;;;;;;2.08;0.40;;;8.30;97.70;;;;;;5065330;28;20035;-73
2024/01/01 10:25:50;;;;;;;4.13;0.90;;;8.30;97.70;;;;;;5063538;28;20037;-73
2024/01/01 10:28:16;;;;;;;3.38;0.70;;;8.30;97.60;;;;;;5065254;28;20043;-74
2024/01/01 10:30:49;;;;;;;3.88;0.50;;;8.40;97.30;;;;;;5063541;28;20196;-77
2024/01/01 10:33:15;;;;;;;6.10;0.70;;;8.50;97.00;;;;;;5065488;28;20295;-75
2024/01/01 10:35:42;;;;;;;4.70;0.65;;;8.60;96.50;;;;;;5063452;28;20033;-74
2024/01/01 10:38:13;;;;;;;4.93;1.10;;;8.70;96.10;;;;;;5065240;28;20033;-73
2024/01/01 10:40:40;;;;;;;4.63;0.80;;;8.70;96.00;;;;;;5064536;28;20032;-75
2024/01/01 10:43:07;;;;;;;4.70;0.82;;;8.80;96.10;;;;;;5063990;28;20044;-73
2024/01/01 10:45:33;;;;;;;4.90;1.00;;;8.80;95.70;;;;;;5062857;28;20037;-74
2024/01/01 10:48:01;;;;;;;5.55;0.90;;;8.80;95.50;;;;;;5064828;28;20108;-74
2024/01/01 10:50:31;;;;;;;6.68;0.90;;;8.80;95.60;;;;;;5063731;28;20029;-75
2024/01/01 10:53:03;;;;;;;5.40;0.90;;;9.00;95.40;;;;;;5064637;28;20036;-74
2024/01/01 10:55:59;;;;;;;4.30;0.77;;;9.20;95.10;;;;;;5063819;28;20029;-72
2024/01/01 10:58:25;;;;;;;4.25;0.75;;;9.50;94.60;;;;;;5064760;28;20032;-73
2024/01/01 11:01:06;;;;;;;5.05;0.65;;;9.50;94.20;;;;;;5063916;28;20086;-74
2024/01/01 11:03:33;;;;;;;6.35;0.75;;;9.60;93.90;;;;;;5063962;28;20219;-75
2024/01/01 11:06:31;;;;;;;4.43;0.77;;;9.50;93.80;;;;;;5064501;28;20059;-73
2024/01/01 11:09:17;;;;;;;4.00;1.05;;;9.30;94.10;;;;;;5064426;28;20285;-71
2024/01/01 11:11:53;;;;;;;4.88;0.77;;;9.30;94.00;;;;;;5063839;28;20037;-74
2024/01/01 11:14:31;;;;;;;5.07;1.10;;;9.40;93.90;;;;;;5064290;28;20024;-75
2024/01/01 11:17:01;;;;;;;4.43;1.13;;;9.50;93.40;;;;;;5064255;28;20090;-73
2024/01/01 11:19:43;;;;;;;7.20;1.00;;;9.50;93.20;;;;;;5063278;28;20338;-72
2024/01/01 11:22:18;;;;;;;5.43;0.93;;;9.60;93.00;;;;;;5064331;28;20032;-76
2024/01/01 11:24:45;;;;;;;7.35;0.90;;;9.70;92.70;;;;;;5063695;28;20082;-74
2024/01/01 11:27:24;;;;;;;6.88;1.42;;;9.70;92.90;;;;;;5063277;28;20037;-74
2024/01/01 11:29:50;;;;;;;6.07;0.80;;;9.70;92.40;;;;;;5063586;28;20223;-75
2024/01/01 11:32:19;;;;;;;5.07;0.95;;;9.70;92.30;;;;;;5046439;28;20097;-72
2024/01/01 11:35:06;;;;;;;6.00;1.20;;;9.80;91.80;;;;;;5063475;28;20079;-74
2024/01/01 11:37:33;;;;;;;5.67;1.00;;;10.20;91.40;;;;;;5063091;28;20039;-75
2024/01/01 11:40:00;;;;;;;5.45;0.95;;;10.40;91.00;;;;;;5046100;28;20032;-73
2024/01/01 11:42:26;;;;;;;5.05;1.00;;;10.10;91.00;;;;;;5063897;28;20037;-71
2024/01/01 11:45:08;;;;;;;4.30;0.82;;;10.10;91.30;;;;;;5062135;28;20032;-74
2024/01/01 11:47:34;;;;;;;6.60;1.33;;;10.00;91.40;;;;;;5063095;28;20308;-72
2024/01/01 11:50:02;;;;;;;6.95;1.25;;;9.90;91.60;;;;;;5063509;28;20092;-73
2024/01/01 11:52:28;;;;;;;11.05;1.40;;;9.70;91.40;;;;;;5062677;28;20029;-72
2024/01/01 11:54:53;;;;;;;7.82;1.27;;;9.70;91.50;;;;;;5063329;28;20021;-73
2024/01/01 11:57:19;;;;;;;5.63;0.98;;;9.70;91.60;;;;;;5063021;28;20036;-73
2024/01/01 11:59:45;;;;;;;6.53;1.10;;;9.60;91.60;;;;;;5062869;28;20037;-73
2024/01/01 12:02:11;;;;;;;7.15;1.20;;;9.50;91.70;;;;;;5062276;28;20070;-73
2024/01/01 12:04:39;;;;;;;9.60;1.20;;;9.50;91.60;;;;;;5062782;28;20029;-71
2024/01/01 12:07:05;;;;;;;6.13;1.50;;;9.50;91.60;;;;;;5063446;28;20048;-74
2024/01/01 12:09:31;;;;;;;6.18;1.20;;;9.60;91.50;;;;;;5062525;28;20092;-72
2024/01/01 12:12:09;;;;;;;9.57;1.23;;;9.70;91.30;;;;;;5063271;28;20040;-73
2024/01/01 12:14:35;;;;;;;;;;;9.80;91.40;;;;;;5063249;28;20036;-72
2024/01/01 12:17:05;;;;;;;8.27;1.40;;;10.20;90.90;;;;;;5063123;28;20108;-72
2024/01/01 12:19:31;;;;;;;7.43;1.05;;;10.10;90.80;;;;;;5062522;28;20072;-72
2024/01/01 12:21:57;;;;;;;5.72;1.20;;;10.10;90.70;;;;;;5062800;28;20020;-74
2024/01/01 12:24:22;;;;;;;7.07;1.25;;;10.30;90.30;;;;;;5063080;28;20371;-73
2024/01/01 12:26:52;;;;;;;10.02;1.52;;;10.20;90.20;;;;;;5062509;28;20035;-73
2024/01/01 12:29:21;;;;;;;7.85;1.13;;;10.00;90.30;;;;;;5061723;28;20025;-71
2024/01/01 12:31:49;;;;;;;6.30;0.60;;;10.00;90.30;;;;;;5062310;28;20039;-75
2024/01/01 12:34:18;;;;;;;5.82;1.00;;;9.90;90.70;;;;;;5062731;28;20058;-71
2024/01/01 12:36:46;;;;;;;4.55;0.85;;;10.20;90.40;;;;;;5062277;28;20067;-74
2024/01/01 12:39:16;;;;;;;6.65;1.25;;;10.50;90.00;;;;;;5062993;28;20074;-73
2024/01/01 12:41:42;;;;;;;5.93;0.80;;;10.80;89.40;;;;;;5061874;28;20028;-73
2024/01/01 12:44:08;;;;;;;5.85;0.63;;;11.10;88.60;;;;;;5062791;28;20085;-72
2024/01/01 12:46:34;;;;;;;4.70;1.05;;;11.30;87.70;;;;;;5061926;28;20041;-73
2024/01/01 12:49:00;;;;;;;4.57;0.70;;;11.60;87.40;;;;;;5062601;28;20038;-73
2024/01/01 12:51:27;;;;;;;7.30;0.85;;;11.60;87.30;;;;;;5062699;28;20055;-72